sensor_id;sensor_type;location;lat;lon;timestamp;P1;durP1;ratioP1;P2;durP2;ratioP2
51660;SDS011;37741;49.748;8.490;2023-03-16T00:02:08;7.35;;;5.05;;
51660;SDS011;37741;49.748;8.490;2023-03-16T00:04:37;9.77;;;4.97;;
51660;SDS011;37741;49.748;8.490;2023-03-16T00:07:03;6.68;;;4.68;;
51660;SDS011;37741;49.748;8.490;2023-03-16T00:09:30;12.23;;;5.10;;
51660;SDS011;37741;49.748;8.490;2023-03-16T00:11:56;8.75;;;5.47;;
51660;SDS011;37741;49.748;8.490;2023-03-16T00:14:22;7.30;;;4.88;;
51660;SDS011;37741;49.748;8.490;2023-03-16T00:16:49;8.25;;;5.13;;
51660;SDS011;37741;49.748;8.490;2023-03-16T00:19:14;7.43;;;5.22;;
51660;SDS011;37741;49.748;8.490;2023-03-16T00:21:40;7.38;;;4.55;;
51660;SDS011;37741;49.748;8.490;2023-03-16T00:24:06;11.55;;;4.47;;
51660;SDS011;37741;49.748;8.490;2023-03-16T00:26:32;7.72;;;5.32;;
51660;SDS011;37741;49.748;8.490;2023-03-16T00:28:57;5.97;;;4.28;;
51660;SDS011;37741;49.748;8.490;2023-03-16T00:31:23;7.78;;;5.00;;
51660;SDS011;37741;49.748;8.490;2023-03-16T00:33:49;7.20;;;4.88;;
51660;SDS011;37741;49.748;8.490;2023-03-16T00:36:15;7.03;;;4.65;;
51660;SDS011;37741;49.748;8.490;2023-03-16T00:38:41;9.18;;;5.57;;
51660;SDS011;37741;49.748;8.490;2023-03-16T00:41:09;8.82;;;4.70;;
51660;SDS011;37741;49.748;8.490;2023-03-16T00:43:38;8.40;;;5.43;;
51660;SDS011;37741;49.748;8.490;2023-03-16T00:46:10;7.55;;;5.28;;
51660;SDS011;37741;49.748;8.490;2023-03-16T00:48:37;6.28;;;4.85;;
51660;SDS011;37741;49.748;8.490;2023-03-16T00:51:07;7.68;;;5.35;;
51660;SDS011;37741;49.748;8.490;2023-03-16T00:53:37;14.00;;;6.75;;
51660;SDS011;37741;49.748;8.490;2023-03-16T00:56:04;9.35;;;5.65;;
51660;SDS011;37741;49.748;8.490;2023-03-16T00:58:34;11.00;;;7.28;;
51660;SDS011;37741;49.748;8.490;2023-03-16T01:03:31;11.75;;;8.35;;
51660;SDS011;37741;49.748;8.490;2023-03-16T01:05:57;11.20;;;8.25;;
51660;SDS011;37741;49.748;8.490;2023-03-16T01:08:28;13.00;;;7.53;;
51660;SDS011;37741;49.748;8.490;2023-03-16T01:10:54;12.73;;;8.10;;
51660;SDS011;37741;49.748;8.490;2023-03-16T01:13:40;13.70;;;8.43;;
51660;SDS011;37741;49.748;8.490;2023-03-16T01:16:06;12.50;;;7.40;;
51660;SDS011;37741;49.748;8.490;2023-03-16T01:18:32;15.38;;;8.93;;
51660;SDS011;37741;49.748;8.490;2023-03-16T01:21:01;11.82;;;7.82;;
51660;SDS011;37741;49.748;8.490;2023-03-16T01:23:28;10.68;;;7.63;;
51660;SDS011;37741;49.748;8.490;2023-03-16T01:25:54;15.50;;;7.30;;
51660;SDS011;37741;49.748;8.490;2023-03-16T01:28:21;11.80;;;6.63;;
51660;SDS011;37741;49.748;8.490;2023-03-16T01:30:49;14.23;;;7.05;;
51660;SDS011;37741;49.748;8.490;2023-03-16T01:33:22;13.32;;;7.35;;
51660;SDS011;37741;49.748;8.490;2023-03-16T01:35:53;10.07;;;6.43;;
51660;SDS011;37741;49.748;8.490;2023-03-16T01:38:23;14.30;;;7.30;;
51660;SDS011;37741;49.748;8.490;2023-03-16T01:40:51;10.48;;;6.32;;
51660;SDS011;37741;49.748;8.490;2023-03-16T01:43:18;10.73;;;7.90;;
51660;SDS011;37741;49.748;8.490;2023-03-16T01:46:05;11.82;;;7.53;;
51660;SDS011;37741;49.748;8.490;2023-03-16T01:48:43;9.88;;;6.68;;
51660;SDS011;37741;49.748;8.490;2023-03-16T01:51:20;10.80;;;6.72;;
51660;SDS011;37741;49.748;8.490;2023-03-16T01:53:50;9.50;;;6.75;;
51660;SDS011;37741;49.748;8.490;2023-03-16T01:56:23;16.80;;;7.40;;
51660;SDS011;37741;49.748;8.490;2023-03-16T01:58:51;10.60;;;6.25;;
51660;SDS011;37741;49.748;8.490;2023-03-16T02:01:22;9.70;;;6.40;;
51660;SDS011;37741;49.748;8.490;2023-03-16T02:03:52;7.78;;;5.57;;
51660;SDS011;37741;49.748;8.490;2023-03-16T02:06:21;11.32;;;7.10;;
51660;SDS011;37741;49.748;8.490;2023-03-16T02:08:47;9.93;;;6.40;;
51660;SDS011;37741;49.748;8.490;2023-03-16T02:11:14;10.40;;;7.18;;
51660;SDS011;37741;49.748;8.490;2023-03-16T02:13:44;10.35;;;6.25;;
51660;SDS011;37741;49.748;8.490;2023-03-16T02:16:10;10.50;;;6.20;;
51660;SDS011;37741;49.748;8.490;2023-03-16T02:18:37;10.20;;;6.53;;
51660;SDS011;37741;49.748;8.490;2023-03-16T02:23:50;9.95;;;6.53;;
51660;SDS011;37741;49.748;8.490;2023-03-16T02:29:19;9.98;;;6.60;;
51660;SDS011;37741;49.748;8.490;2023-03-16T02:31:56;9.65;;;6.32;;
51660;SDS011;37741;49.748;8.490;2023-03-16T02:34:23;11.90;;;6.22;;
51660;SDS011;37741;49.748;8.490;2023-03-16T02:36:49;11.27;;;6.22;;
51660;SDS011;37741;49.748;8.490;2023-03-16T02:39:17;13.93;;;6.30;;
51660;SDS011;37741;49.748;8.490;2023-03-16T02:41:43;14.10;;;5.93;;
51660;SDS011;37741;49.748;8.490;2023-03-16T02:44:11;8.27;;;5.85;;
51660;SDS011;37741;49.748;8.490;2023-03-16T02:46:40;9.15;;;6.10;;
51660;SDS011;37741;49.748;8.490;2023-03-16T02:51:53;14.25;;;6.57;;
51660;SDS011;37741;49.748;8.490;2023-03-16T02:54:21;10.38;;;5.35;;
51660;SDS011;37741;49.748;8.490;2023-03-16T02:56:47;9.13;;;5.88;;
51660;SDS011;37741;49.748;8.490;2023-03-16T02:59:12;9.20;;;6.13;;
51660;SDS011;37741;49.748;8.490;2023-03-16T03:01:38;8.38;;;5.47;;
51660;SDS011;37741;49.748;8.490;2023-03-16T03:04:04;11.73;;;5.32;;
51660;SDS011;37741;49.748;8.490;2023-03-16T03:06:30;7.80;;;5.00;;
51660;SDS011;37741;49.748;8.490;2023-03-16T03:08:56;8.02;;;5.43;;
51660;SDS011;37741;49.748;8.490;2023-03-16T03:11:22;7.65;;;5.57;;
51660;SDS011;37741;49.748;8.490;2023-03-16T03:13:48;9.18;;;4.95;;
51660;SDS011;37741;49.748;8.490;2023-03-16T03:16:13;10.07;;;5.60;;
51660;SDS011;37741;49.748;8.490;2023-03-16T03:18:39;9.68;;;4.90;;
51660;SDS011;37741;49.748;8.490;2023-03-16T03:21:05;8.02;;;5.95;;
51660;SDS011;37741;49.748;8.490;2023-03-16T03:23:31;9.32;;;6.30;;
51660;SDS011;37741;49.748;8.490;2023-03-16T03:25:58;9.18;;;5.50;;
51660;SDS011;37741;49.748;8.490;2023-03-16T03:28:25;8.32;;;5.25;;
51660;SDS011;37741;49.748;8.490;2023-03-16T03:30:50;11.25;;;5.07;;
51660;SDS011;37741;49.748;8.490;2023-03-16T03:33:17;7.65;;;5.05;;
51660;SDS011;37741;49.748;8.490;2023-03-16T03:35:42;6.85;;;4.93;;
51660;SDS011;37741;49.748;8.490;2023-03-16T03:38:08;8.43;;;4.72;;
51660;SDS011;37741;49.748;8.490;2023-03-16T03:40:35;9.23;;;5.30;;
51660;SDS011;37741;49.748;8.490;2023-03-16T03:43:01;7.18;;;5.38;;
51660;SDS011;37741;49.748;8.490;2023-03-16T03:45:28;7.55;;;4.82;;
51660;SDS011;37741;49.748;8.490;2023-03-16T03:47:53;7.85;;;5.25;;
51660;SDS011;37741;49.748;8.490;2023-03-16T03:50:20;8.40;;;5.35;;
51660;SDS011;37741;49.748;8.490;2023-03-16T03:52:46;8.00;;;5.30;;
51660;SDS011;37741;49.748;8.490;2023-03-16T03:55:12;7.53;;;4.93;;
51660;SDS011;37741;49.748;8.490;2023-03-16T03:57:37;9.45;;;4.85;;
51660;SDS011;37741;49.748;8.490;2023-03-16T04:00:04;6.57;;;5.47;;
51660;SDS011;37741;49.748;8.490;2023-03-16T04:02:35;7.35;;;5.47;;
51660;SDS011;37741;49.748;8.490;2023-03-16T04:05:01;10.05;;;5.53;;
51660;SDS011;37741;49.748;8.490;2023-03-16T04:07:28;6.80;;;5.03;;
51660;SDS011;37741;49.748;8.490;2023-03-16T04:09:53;6.68;;;5.15;;
51660;SDS011;37741;49.748;8.490;2023-03-16T04:12:19;6.90;;;5.22;;
51660;SDS011;37741;49.748;8.490;2023-03-16T04:14:45;7.53;;;5.10;;
51660;SDS011;37741;49.748;8.490;2023-03-16T04:17:10;7.00;;;5.10;;
51660;SDS011;37741;49.748;8.490;2023-03-16T04:19:36;7.78;;;4.82;;
51660;SDS011;37741;49.748;8.490;2023-03-16T04:22:02;9.27;;;5.30;;
51660;SDS011;37741;49.748;8.490;2023-03-16T04:24:27;6.68;;;4.60;;
51660;SDS011;37741;49.748;8.490;2023-03-16T04:26:53;9.77;;;5.43;;
51660;SDS011;37741;49.748;8.490;2023-03-16T04:29:19;6.75;;;5.07;;
51660;SDS011;37741;49.748;8.490;2023-03-16T04:31:45;7.10;;;5.07;;
51660;SDS011;37741;49.748;8.490;2023-03-16T04:34:11;6.88;;;4.88;;
51660;SDS011;37741;49.748;8.490;2023-03-16T04:36:37;8.85;;;5.32;;
51660;SDS011;37741;49.748;8.490;2023-03-16T04:39:03;6.35;;;4.70;;
51660;SDS011;37741;49.748;8.490;2023-03-16T04:41:30;7.38;;;4.88;;
51660;SDS011;37741;49.748;8.490;2023-03-16T04:43:56;8.02;;;5.63;;
51660;SDS011;37741;49.748;8.490;2023-03-16T04:46:23;8.27;;;5.30;;
51660;SDS011;37741;49.748;8.490;2023-03-16T04:48:50;8.00;;;5.70;;
51660;SDS011;37741;49.748;8.490;2023-03-16T04:51:16;8.20;;;5.13;;
51660;SDS011;37741;49.748;8.490;2023-03-16T04:53:41;7.47;;;5.50;;
51660;SDS011;37741;49.748;8.490;2023-03-16T04:56:08;7.20;;;5.25;;
51660;SDS011;37741;49.748;8.490;2023-03-16T04:58:46;9.02;;;5.25;;
51660;SDS011;37741;49.748;8.490;2023-03-16T05:01:14;7.90;;;5.03;;
51660;SDS011;37741;49.748;8.490;2023-03-16T05:03:41;8.93;;;6.30;;
51660;SDS011;37741;49.748;8.490;2023-03-16T05:06:07;7.85;;;5.10;;
51660;SDS011;37741;49.748;8.490;2023-03-16T05:08:34;9.45;;;5.43;;
51660;SDS011;37741;49.748;8.490;2023-03-16T05:11:00;6.95;;;4.63;;
51660;SDS011;37741;49.748;8.490;2023-03-16T05:13:26;8.18;;;5.15;;
51660;SDS011;37741;49.748;8.490;2023-03-16T05:15:52;7.35;;;5.00;;
51660;SDS011;37741;49.748;8.490;2023-03-16T05:18:18;9.65;;;4.85;;
51660;SDS011;37741;49.748;8.490;2023-03-16T05:20:44;8.02;;;4.80;;
51660;SDS011;37741;49.748;8.490;2023-03-16T05:23:10;8.15;;;5.20;;
51660;SDS011;37741;49.748;8.490;2023-03-16T05:25:35;8.20;;;5.10;;
51660;SDS011;37741;49.748;8.490;2023-03-16T05:28:02;10.52;;;5.45;;
51660;SDS011;37741;49.748;8.490;2023-03-16T05:30:28;8.90;;;5.10;;
51660;SDS011;37741;49.748;8.490;2023-03-16T05:32:55;8.95;;;5.60;;
51660;SDS011;37741;49.748;8.490;2023-03-16T05:35:21;6.10;;;4.80;;
51660;SDS011;37741;49.748;8.490;2023-03-16T05:37:50;8.05;;;5.10;;
51660;SDS011;37741;49.748;8.490;2023-03-16T05:40:16;7.75;;;4.57;;
51660;SDS011;37741;49.748;8.490;2023-03-16T05:42:43;8.40;;;5.50;;
51660;SDS011;37741;49.748;8.490;2023-03-16T05:45:10;8.90;;;5.97;;
51660;SDS011;37741;49.748;8.490;2023-03-16T05:47:36;8.25;;;5.05;;
51660;SDS011;37741;49.748;8.490;2023-03-16T05:50:03;7.68;;;4.60;;
51660;SDS011;37741;49.748;8.490;2023-03-16T05:52:29;6.43;;;4.70;;
51660;SDS011;37741;49.748;8.490;2023-03-16T05:54:56;7.60;;;5.60;;
51660;SDS011;37741;49.748;8.490;2023-03-16T05:57:21;7.22;;;4.95;;
51660;SDS011;37741;49.748;8.490;2023-03-16T05:59:47;11.95;;;5.00;;
51660;SDS011;37741;49.748;8.490;2023-03-16T06:02:14;10.55;;;5.38;;
51660;SDS011;37741;49.748;8.490;2023-03-16T06:04:40;10.02;;;5.22;;
51660;SDS011;37741;49.748;8.490;2023-03-16T06:07:05;8.35;;;4.95;;
51660;SDS011;37741;49.748;8.490;2023-03-16T06:09:31;7.80;;;5.18;;
51660;SDS011;37741;49.748;8.490;2023-03-16T06:11:57;8.05;;;5.45;;
51660;SDS011;37741;49.748;8.490;2023-03-16T06:14:22;7.35;;;5.07;;
51660;SDS011;37741;49.748;8.490;2023-03-16T06:16:48;7.45;;;5.15;;
51660;SDS011;37741;49.748;8.490;2023-03-16T06:19:14;6.82;;;4.82;;
51660;SDS011;37741;49.748;8.490;2023-03-16T06:21:40;7.68;;;5.45;;
51660;SDS011;37741;49.748;8.490;2023-03-16T06:24:06;6.95;;;5.15;;
51660;SDS011;37741;49.748;8.490;2023-03-16T06:26:33;6.78;;;5.38;;
51660;SDS011;37741;49.748;8.490;2023-03-16T06:29:02;9.05;;;4.90;;
51660;SDS011;37741;49.748;8.490;2023-03-16T06:31:27;7.07;;;4.50;;
51660;SDS011;37741;49.748;8.490;2023-03-16T06:33:53;8.50;;;4.88;;
51660;SDS011;37741;49.748;8.490;2023-03-16T06:36:19;9.52;;;5.82;;
51660;SDS011;37741;49.748;8.490;2023-03-16T06:38:45;7.53;;;4.88;;
51660;SDS011;37741;49.748;8.490;2023-03-16T06:41:11;9.82;;;5.97;;
51660;SDS011;37741;49.748;8.490;2023-03-16T06:43:36;7.53;;;4.80;;
51660;SDS011;37741;49.748;8.490;2023-03-16T06:46:02;8.68;;;5.93;;
51660;SDS011;37741;49.748;8.490;2023-03-16T06:48:28;9.13;;;6.32;;
51660;SDS011;37741;49.748;8.490;2023-03-16T06:50:54;8.38;;;5.72;;
51660;SDS011;37741;49.748;8.490;2023-03-16T06:53:20;10.68;;;6.03;;
51660;SDS011;37741;49.748;8.490;2023-03-16T06:55:46;8.88;;;5.45;;
51660;SDS011;37741;49.748;8.490;2023-03-16T06:58:12;8.32;;;5.85;;
51660;SDS011;37741;49.748;8.490;2023-03-16T07:00:38;10.25;;;6.07;;
51660;SDS011;37741;49.748;8.490;2023-03-16T07:03:03;9.38;;;7.25;;
51660;SDS011;37741;49.748;8.490;2023-03-16T07:05:29;9.90;;;6.13;;
51660;SDS011;37741;49.748;8.490;2023-03-16T07:07:55;7.50;;;5.20;;
51660;SDS011;37741;49.748;8.490;2023-03-16T07:10:21;8.93;;;5.45;;
51660;SDS011;37741;49.748;8.490;2023-03-16T07:12:48;8.90;;;5.45;;
51660;SDS011;37741;49.748;8.490;2023-03-16T07:15:14;12.35;;;6.07;;
51660;SDS011;37741;49.748;8.490;2023-03-16T07:17:40;7.93;;;5.70;;
51660;SDS011;37741;49.748;8.490;2023-03-16T07:20:06;7.25;;;5.68;;
51660;SDS011;37741;49.748;8.490;2023-03-16T07:22:34;9.00;;;5.57;;
51660;SDS011;37741;49.748;8.490;2023-03-16T07:25:00;8.80;;;6.28;;
51660;SDS011;37741;49.748;8.490;2023-03-16T07:27:26;9.88;;;6.05;;
51660;SDS011;37741;49.748;8.490;2023-03-16T07:29:53;8.65;;;5.90;;
51660;SDS011;37741;49.748;8.490;2023-03-16T07:32:19;10.05;;;6.05;;
51660;SDS011;37741;49.748;8.490;2023-03-16T07:34:45;9.25;;;5.38;;
51660;SDS011;37741;49.748;8.490;2023-03-16T07:37:11;9.10;;;5.90;;
51660;SDS011;37741;49.748;8.490;2023-03-16T07:39:37;7.60;;;5.75;;
51660;SDS011;37741;49.748;8.490;2023-03-16T07:42:03;8.73;;;5.28;;
51660;SDS011;37741;49.748;8.490;2023-03-16T07:44:29;7.95;;;5.38;;
51660;SDS011;37741;49.748;8.490;2023-03-16T07:46:55;8.68;;;5.47;;
51660;SDS011;37741;49.748;8.490;2023-03-16T07:49:20;8.80;;;5.47;;
51660;SDS011;37741;49.748;8.490;2023-03-16T07:51:46;8.48;;;5.43;;
51660;SDS011;37741;49.748;8.490;2023-03-16T07:54:12;7.40;;;5.28;;
51660;SDS011;37741;49.748;8.490;2023-03-16T07:56:38;11.23;;;6.22;;
51660;SDS011;37741;49.748;8.490;2023-03-16T07:59:04;9.27;;;5.65;;
51660;SDS011;37741;49.748;8.490;2023-03-16T08:01:29;10.98;;;5.85;;
51660;SDS011;37741;49.748;8.490;2023-03-16T08:03:55;9.43;;;5.75;;
51660;SDS011;37741;49.748;8.490;2023-03-16T08:06:21;7.90;;;5.38;;
51660;SDS011;37741;49.748;8.490;2023-03-16T08:08:49;9.60;;;6.60;;
51660;SDS011;37741;49.748;8.490;2023-03-16T08:11:15;9.45;;;6.43;;
51660;SDS011;37741;49.748;8.490;2023-03-16T08:13:47;9.10;;;6.22;;
51660;SDS011;37741;49.748;8.490;2023-03-16T08:16:18;10.68;;;6.55;;
51660;SDS011;37741;49.748;8.490;2023-03-16T08:18:50;13.13;;;5.90;;
51660;SDS011;37741;49.748;8.490;2023-03-16T08:21:17;10.50;;;6.15;;
51660;SDS011;37741;49.748;8.490;2023-03-16T08:23:44;13.45;;;6.22;;
51660;SDS011;37741;49.748;8.490;2023-03-16T08:26:13;10.65;;;6.15;;
51660;SDS011;37741;49.748;8.490;2023-03-16T08:28:41;8.50;;;5.95;;
51660;SDS011;37741;49.748;8.490;2023-03-16T08:31:09;8.00;;;5.90;;
51660;SDS011;37741;49.748;8.490;2023-03-16T08:33:36;11.80;;;6.78;;
51660;SDS011;37741;49.748;8.490;2023-03-16T08:36:04;7.68;;;5.72;;
51660;SDS011;37741;49.748;8.490;2023-03-16T08:38:30;10.60;;;6.20;;
51660;SDS011;37741;49.748;8.490;2023-03-16T08:40:57;11.80;;;6.93;;
51660;SDS011;37741;49.748;8.490;2023-03-16T08:43:24;11.48;;;6.15;;
51660;SDS011;37741;49.748;8.490;2023-03-16T08:45:51;8.57;;;5.70;;
51660;SDS011;37741;49.748;8.490;2023-03-16T08:48:17;7.95;;;6.13;;
51660;SDS011;37741;49.748;8.490;2023-03-16T08:50:44;9.57;;;6.32;;
51660;SDS011;37741;49.748;8.490;2023-03-16T08:53:10;10.63;;;6.22;;
51660;SDS011;37741;49.748;8.490;2023-03-16T08:55:37;11.82;;;6.13;;
51660;SDS011;37741;49.748;8.490;2023-03-16T08:58:05;8.10;;;5.68;;
51660;SDS011;37741;49.748;8.490;2023-03-16T09:00:31;8.88;;;6.35;;
51660;SDS011;37741;49.748;8.490;2023-03-16T09:02:57;7.85;;;5.63;;
51660;SDS011;37741;49.748;8.490;2023-03-16T09:05:24;8.82;;;5.53;;
51660;SDS011;37741;49.748;8.490;2023-03-16T09:07:50;9.85;;;7.20;;
51660;SDS011;37741;49.748;8.490;2023-03-16T09:10:18;8.13;;;6.07;;
51660;SDS011;37741;49.748;8.490;2023-03-16T09:12:47;9.75;;;5.53;;
51660;SDS011;37741;49.748;8.490;2023-03-16T09:15:13;12.50;;;7.28;;
51660;SDS011;37741;49.748;8.490;2023-03-16T09:17:39;9.52;;;6.38;;
51660;SDS011;37741;49.748;8.490;2023-03-16T09:20:06;8.30;;;5.80;;
51660;SDS011;37741;49.748;8.490;2023-03-16T09:22:34;9.90;;;6.05;;
51660;SDS011;37741;49.748;8.490;2023-03-16T09:25:01;8.40;;;6.30;;
51660;SDS011;37741;49.748;8.490;2023-03-16T09:27:31;9.65;;;6.47;;
51660;SDS011;37741;49.748;8.490;2023-03-16T09:29:57;12.05;;;6.72;;
51660;SDS011;37741;49.748;8.490;2023-03-16T09:32:24;9.55;;;6.65;;
51660;SDS011;37741;49.748;8.490;2023-03-16T09:34:52;8.80;;;6.20;;
51660;SDS011;37741;49.748;8.490;2023-03-16T09:37:18;9.35;;;6.65;;
51660;SDS011;37741;49.748;8.490;2023-03-16T09:39:44;9.60;;;6.90;;
51660;SDS011;37741;49.748;8.490;2023-03-16T09:45:08;8.73;;;6.60;;
51660;SDS011;37741;49.748;8.490;2023-03-16T09:47:59;10.35;;;7.10;;
51660;SDS011;37741;49.748;8.490;2023-03-16T09:50:29;12.18;;;7.47;;
51660;SDS011;37741;49.748;8.490;2023-03-16T09:53:12;8.77;;;6.25;;
51660;SDS011;37741;49.748;8.490;2023-03-16T10:05:16;9.20;;;6.55;;
51660;SDS011;37741;49.748;8.490;2023-03-16T10:10:26;11.07;;;8.10;;
51660;SDS011;37741;49.748;8.490;2023-03-16T10:13:03;11.15;;;6.63;;
51660;SDS011;37741;49.748;8.490;2023-03-16T10:15:41;9.60;;;7.57;;
51660;SDS011;37741;49.748;8.490;2023-03-16T10:18:11;10.90;;;7.93;;
51660;SDS011;37741;49.748;8.490;2023-03-16T10:20:45;10.05;;;7.47;;
51660;SDS011;37741;49.748;8.490;2023-03-16T10:23:22;10.02;;;7.00;;
51660;SDS011;37741;49.748;8.490;2023-03-16T10:25:52;9.48;;;6.93;;
51660;SDS011;37741;49.748;8.490;2023-03-16T10:28:23;12.27;;;8.60;;
51660;SDS011;37741;49.748;8.490;2023-03-16T10:30:52;10.30;;;7.80;;
51660;SDS011;37741;49.748;8.490;2023-03-16T10:33:26;11.25;;;7.78;;
51660;SDS011;37741;49.748;8.490;2023-03-16T10:36:01;11.25;;;7.80;;
51660;SDS011;37741;49.748;8.490;2023-03-16T10:38:41;10.70;;;7.18;;
51660;SDS011;37741;49.748;8.490;2023-03-16T10:43:44;10.48;;;7.57;;
51660;SDS011;37741;49.748;8.490;2023-03-16T10:46:13;9.68;;;7.43;;
51660;SDS011;37741;49.748;8.490;2023-03-16T10:48:39;8.52;;;6.53;;
51660;SDS011;37741;49.748;8.490;2023-03-16T10:51:11;9.55;;;6.82;;
51660;SDS011;37741;49.748;8.490;2023-03-16T10:53:42;9.60;;;7.00;;
51660;SDS011;37741;49.748;8.490;2023-03-16T10:56:17;8.65;;;6.70;;
51660;SDS011;37741;49.748;8.490;2023-03-16T10:58:45;9.48;;;5.60;;
51660;SDS011;37741;49.748;8.490;2023-03-16T11:01:17;7.97;;;5.97;;
51660;SDS011;37741;49.748;8.490;2023-03-16T11:03:49;11.30;;;6.50;;
51660;SDS011;37741;49.748;8.490;2023-03-16T11:06:35;9.57;;;6.90;;
51660;SDS011;37741;49.748;8.490;2023-03-16T11:09:11;9.52;;;6.18;;
51660;SDS011;37741;49.748;8.490;2023-03-16T11:11:45;10.18;;;5.72;;
51660;SDS011;37741;49.748;8.490;2023-03-16T11:14:18;7.53;;;5.47;;
51660;SDS011;37741;49.748;8.490;2023-03-16T11:17:36;7.82;;;5.32;;
51660;SDS011;37741;49.748;8.490;2023-03-16T11:20:13;8.10;;;5.40;;
51660;SDS011;37741;49.748;8.490;2023-03-16T11:22:42;8.85;;;5.10;;
51660;SDS011;37741;49.748;8.490;2023-03-16T11:28:15;6.70;;;4.63;;
51660;SDS011;37741;49.748;8.490;2023-03-16T11:30:58;6.80;;;4.75;;
51660;SDS011;37741;49.748;8.490;2023-03-16T11:33:27;6.55;;;4.70;;
51660;SDS011;37741;49.748;8.490;2023-03-16T11:39:02;5.28;;;4.35;;
51660;SDS011;37741;49.748;8.490;2023-03-16T11:44:22;6.18;;;4.10;;
51660;SDS011;37741;49.748;8.490;2023-03-16T11:47:01;6.25;;;4.03;;
51660;SDS011;37741;49.748;8.490;2023-03-16T11:49:51;5.55;;;4.10;;
51660;SDS011;37741;49.748;8.490;2023-03-16T11:55:32;5.35;;;3.80;;
51660;SDS011;37741;49.748;8.490;2023-03-16T11:58:32;6.47;;;4.05;;
51660;SDS011;37741;49.748;8.490;2023-03-16T12:01:19;6.47;;;3.90;;
51660;SDS011;37741;49.748;8.490;2023-03-16T12:04:10;5.35;;;3.67;;
51660;SDS011;37741;49.748;8.490;2023-03-16T12:10:01;5.15;;;3.30;;
51660;SDS011;37741;49.748;8.490;2023-03-16T12:15:42;5.53;;;3.75;;
51660;SDS011;37741;49.748;8.490;2023-03-16T12:20:56;5.32;;;3.13;;
51660;SDS011;37741;49.748;8.490;2023-03-16T12:23:36;4.22;;;2.70;;
51660;SDS011;37741;49.748;8.490;2023-03-16T12:26:22;4.00;;;2.90;;
51660;SDS011;37741;49.748;8.490;2023-03-16T12:28:53;4.47;;;2.65;;
51660;SDS011;37741;49.748;8.490;2023-03-16T12:31:36;5.57;;;2.88;;
51660;SDS011;37741;49.748;8.490;2023-03-16T12:34:25;4.20;;;2.60;;
51660;SDS011;37741;49.748;8.490;2023-03-16T12:37:17;3.83;;;2.83;;
51660;SDS011;37741;49.748;8.490;2023-03-16T12:40:35;4.30;;;2.50;;
51660;SDS011;37741;49.748;8.490;2023-03-16T12:48:26;3.80;;;2.40;;
51660;SDS011;37741;49.748;8.490;2023-03-16T12:50:56;4.13;;;2.40;;
51660;SDS011;37741;49.748;8.490;2023-03-16T12:56:10;5.55;;;2.30;;
51660;SDS011;37741;49.748;8.490;2023-03-16T12:58:43;3.78;;;1.98;;
51660;SDS011;37741;49.748;8.490;2023-03-16T13:01:12;4.65;;;2.25;;
51660;SDS011;37741;49.748;8.490;2023-03-16T13:03:40;4.47;;;2.42;;
51660;SDS011;37741;49.748;8.490;2023-03-16T13:06:14;5.68;;;2.22;;
51660;SDS011;37741;49.748;8.490;2023-03-16T13:08:45;3.80;;;2.00;;
51660;SDS011;37741;49.748;8.490;2023-03-16T13:11:16;3.42;;;2.03;;
51660;SDS011;37741;49.748;8.490;2023-03-16T13:16:33;5.63;;;2.00;;
51660;SDS011;37741;49.748;8.490;2023-03-16T13:19:15;3.55;;;2.03;;
51660;SDS011;37741;49.748;8.490;2023-03-16T13:22:17;3.17;;;1.80;;
51660;SDS011;37741;49.748;8.490;2023-03-16T13:24:48;3.22;;;2.10;;
51660;SDS011;37741;49.748;8.490;2023-03-16T13:27:21;2.70;;;1.60;;
51660;SDS011;37741;49.748;8.490;2023-03-16T13:29:53;3.55;;;2.20;;
51660;SDS011;37741;49.748;8.490;2023-03-16T13:32:20;2.58;;;1.45;;
51660;SDS011;37741;49.748;8.490;2023-03-16T13:34:48;5.07;;;1.50;;
51660;SDS011;37741;49.748;8.490;2023-03-16T13:37:21;4.88;;;1.90;;
51660;SDS011;37741;49.748;8.490;2023-03-16T13:40:31;3.70;;;2.15;;
51660;SDS011;37741;49.748;8.490;2023-03-16T13:42:51;2.75;;;1.60;;
51660;SDS011;37741;49.748;8.490;2023-03-16T13:45:20;3.45;;;2.00;;
51660;SDS011;37741;49.748;8.490;2023-03-16T13:47:48;3.17;;;1.90;;
51660;SDS011;37741;49.748;8.490;2023-03-16T13:50:14;4.38;;;1.58;;
51660;SDS011;37741;49.748;8.490;2023-03-16T13:52:42;3.55;;;1.83;;
51660;SDS011;37741;49.748;8.490;2023-03-16T13:55:20;4.13;;;1.88;;
51660;SDS011;37741;49.748;8.490;2023-03-16T13:57:51;2.80;;;1.48;;
51660;SDS011;37741;49.748;8.490;2023-03-16T14:00:17;2.63;;;1.23;;
51660;SDS011;37741;49.748;8.490;2023-03-16T14:02:45;2.88;;;1.88;;
51660;SDS011;37741;49.748;8.490;2023-03-16T14:05:17;3.47;;;1.33;;
51660;SDS011;37741;49.748;8.490;2023-03-16T14:07:46;3.63;;;1.55;;
51660;SDS011;37741;49.748;8.490;2023-03-16T14:10:12;2.55;;;1.40;;
51660;SDS011;37741;49.748;8.490;2023-03-16T14:12:54;2.20;;;1.40;;
51660;SDS011;37741;49.748;8.490;2023-03-16T14:15:24;3.00;;;1.45;;
51660;SDS011;37741;49.748;8.490;2023-03-16T14:17:51;3.35;;;1.38;;
51660;SDS011;37741;49.748;8.490;2023-03-16T14:20:21;2.70;;;1.20;;
51660;SDS011;37741;49.748;8.490;2023-03-16T14:22:50;3.63;;;1.67;;
51660;SDS011;37741;49.748;8.490;2023-03-16T14:25:23;2.63;;;1.40;;
51660;SDS011;37741;49.748;8.490;2023-03-16T14:27:58;3.53;;;1.40;;
51660;SDS011;37741;49.748;8.490;2023-03-16T14:30:27;3.13;;;1.33;;
51660;SDS011;37741;49.748;8.490;2023-03-16T14:33:01;3.42;;;1.38;;
51660;SDS011;37741;49.748;8.490;2023-03-16T14:35:39;2.78;;;1.23;;
51660;SDS011;37741;49.748;8.490;2023-03-16T14:43:36;4.47;;;1.58;;
51660;SDS011;37741;49.748;8.490;2023-03-16T14:46:16;2.47;;;1.20;;
51660;SDS011;37741;49.748;8.490;2023-03-16T14:49:05;2.55;;;1.25;;
51660;SDS011;37741;49.748;8.490;2023-03-16T14:51:52;2.72;;;1.50;;
51660;SDS011;37741;49.748;8.490;2023-03-16T14:54:22;3.20;;;1.42;;
51660;SDS011;37741;49.748;8.490;2023-03-16T14:56:50;2.85;;;1.63;;
51660;SDS011;37741;49.748;8.490;2023-03-16T14:59:18;3.85;;;1.30;;
51660;SDS011;37741;49.748;8.490;2023-03-16T15:01:45;3.42;;;1.30;;
51660;SDS011;37741;49.748;8.490;2023-03-16T15:04:12;3.25;;;1.30;;
51660;SDS011;37741;49.748;8.490;2023-03-16T15:06:40;2.83;;;1.50;;
51660;SDS011;37741;49.748;8.490;2023-03-16T15:09:06;5.97;;;1.50;;
51660;SDS011;37741;49.748;8.490;2023-03-16T15:11:40;2.95;;;1.17;;
51660;SDS011;37741;49.748;8.490;2023-03-16T15:14:09;4.28;;;1.10;;
51660;SDS011;37741;49.748;8.490;2023-03-16T15:16:59;3.13;;;1.45;;
51660;SDS011;37741;49.748;8.490;2023-03-16T15:19:24;2.20;;;1.10;;
51660;SDS011;37741;49.748;8.490;2023-03-16T15:21:50;2.97;;;1.38;;
51660;SDS011;37741;49.748;8.490;2023-03-16T15:24:15;2.78;;;1.42;;
51660;SDS011;37741;49.748;8.490;2023-03-16T15:26:41;2.17;;;1.10;;
51660;SDS011;37741;49.748;8.490;2023-03-16T15:29:08;2.78;;;1.23;;
51660;SDS011;37741;49.748;8.490;2023-03-16T15:31:36;1.77;;;1.00;;
51660;SDS011;37741;49.748;8.490;2023-03-16T15:34:01;2.55;;;0.90;;
51660;SDS011;37741;49.748;8.490;2023-03-16T15:36:27;2.50;;;1.20;;
51660;SDS011;37741;49.748;8.490;2023-03-16T15:38:53;3.80;;;1.67;;
51660;SDS011;37741;49.748;8.490;2023-03-16T15:41:19;3.00;;;1.20;;
51660;SDS011;37741;49.748;8.490;2023-03-16T15:43:45;1.98;;;0.90;;
51660;SDS011;37741;49.748;8.490;2023-03-16T15:46:11;2.63;;;1.10;;
51660;SDS011;37741;49.748;8.490;2023-03-16T15:48:37;3.35;;;1.20;;
51660;SDS011;37741;49.748;8.490;2023-03-16T15:51:07;3.35;;;1.20;;
51660;SDS011;37741;49.748;8.490;2023-03-16T15:53:39;2.67;;;1.20;;
51660;SDS011;37741;49.748;8.490;2023-03-16T15:56:12;2.30;;;1.05;;
51660;SDS011;37741;49.748;8.490;2023-03-16T15:58:41;1.67;;;0.88;;
51660;SDS011;37741;49.748;8.490;2023-03-16T16:03:44;2.88;;;1.17;;
51660;SDS011;37741;49.748;8.490;2023-03-16T16:06:10;3.33;;;1.60;;
51660;SDS011;37741;49.748;8.490;2023-03-16T16:08:36;2.20;;;1.05;;